createdAt,value
2023-04-09T00:01:17.089Z,69.94
2023-04-09T00:03:45.374Z,69.98
2023-04-09T00:06:13.811Z,70.01
2023-04-09T00:08:41.753Z,69.88
2023-04-09T00:11:11.730Z,70.74
2023-04-09T00:13:40.139Z,71.93
2023-04-09T00:16:08.472Z,72.20
2023-04-09T00:18:38.434Z,72.49
2023-04-09T00:21:08.867Z,72.57
2023-04-09T00:23:37.112Z,72.75
2023-04-09T00:26:05.468Z,72.87
2023-04-09T00:28:33.724Z,72.66
2023-04-09T00:31:02.644Z,72.75
2023-04-09T00:33:31.497Z,72.93
2023-04-09T00:35:59.561Z,72.91
2023-04-09T00:38:27.958Z,73.03
2023-04-09T00:40:56.294Z,73.09
2023-04-09T00:43:25.970Z,73.05
2023-04-09T00:45:56.095Z,73.22
2023-04-09T00:48:24.821Z,73.11
2023-04-09T00:50:52.837Z,73.21
2023-04-09T00:53:21.075Z,73.17
2023-04-09T00:55:49.252Z,73.07
2023-04-09T00:58:32.748Z,73.24
2023-04-09T01:01:01.143Z,73.33
2023-04-09T01:03:32.239Z,73.47
2023-04-09T01:06:09.066Z,73.52
2023-04-09T01:08:48.406Z,72.88
2023-04-09T01:11:36.583Z,71.94
2023-04-09T01:14:08.864Z,71.77
2023-04-09T01:16:37.398Z,71.78
2023-04-09T01:19:11.441Z,71.83
2023-04-09T01:21:40.404Z,71.86
2023-04-09T01:24:40.365Z,72.12
2023-04-09T01:27:08.759Z,72.27
2023-04-09T01:29:59.554Z,72.11
2023-04-09T01:32:28.167Z,71.99
2023-04-09T01:34:58.350Z,72.10
2023-04-09T01:37:26.541Z,72.25
2023-04-09T01:39:57.574Z,72.36
2023-04-09T01:42:27.803Z,72.16
2023-04-09T01:44:57.708Z,72.08
2023-04-09T01:47:26.267Z,72.05
2023-04-09T01:49:54.317Z,71.92
2023-04-09T01:52:22.592Z,72.04
2023-04-09T01:54:50.656Z,71.84
2023-04-09T01:57:18.783Z,71.87
2023-04-09T01:59:47.194Z,71.83
2023-04-09T02:02:20.722Z,71.88
2023-04-09T02:04:49.423Z,71.89
2023-04-09T02:07:46.394Z,71.84
2023-04-09T02:10:14.566Z,71.86
2023-04-09T02:12:45.566Z,71.85
2023-04-09T02:15:14.524Z,71.85
2023-04-09T02:17:43.642Z,71.97
2023-04-09T02:20:12.564Z,72.03
2023-04-09T02:22:40.769Z,72.06
2023-04-09T02:25:08.930Z,72.00
2023-04-09T02:27:36.941Z,72.09
2023-04-09T02:30:11.136Z,72.21
2023-04-09T02:32:39.258Z,72.00
2023-04-09T02:35:10.493Z,71.88
2023-04-09T02:37:38.840Z,72.14
2023-04-09T02:40:09.728Z,72.41
2023-04-09T02:42:38.057Z,72.40
2023-04-09T02:45:07.022Z,72.31
2023-04-09T02:47:41.035Z,72.31
2023-04-09T02:50:09.547Z,72.07
2023-04-09T02:52:38.008Z,71.89
2023-04-09T02:55:08.389Z,71.63
2023-04-09T02:57:37.457Z,71.39
2023-04-09T03:00:06.141Z,71.09
2023-04-09T03:02:41.684Z,71.09
2023-04-09T03:05:09.849Z,71.21
2023-04-09T03:07:42.207Z,71.32
2023-04-09T03:10:11.052Z,71.27
2023-04-09T03:12:39.926Z,71.47
2023-04-09T03:15:08.642Z,71.56
2023-04-09T03:17:39.178Z,71.64
2023-04-09T03:20:07.895Z,71.65
2023-04-09T03:22:42.756Z,71.43
2023-04-09T03:25:29.785Z,71.35
2023-04-09T03:27:58.623Z,71.21
2023-04-09T03:30:43.674Z,71.26
2023-04-09T03:33:12.323Z,71.16
2023-04-09T03:35:50.902Z,71.13
2023-04-09T03:38:26.997Z,71.10
2023-04-09T03:40:56.273Z,70.94
2023-04-09T03:43:24.580Z,70.93
2023-04-09T03:45:53.885Z,70.88
2023-04-09T03:48:26.184Z,70.83
2023-04-09T03:50:54.326Z,70.47
2023-04-09T03:53:32.618Z,70.15
2023-04-09T03:56:04.496Z,70.03
2023-04-09T03:58:32.992Z,70.02
2023-04-09T04:01:02.303Z,70.00
2023-04-09T04:03:37.759Z,70.06
2023-04-09T04:06:28.032Z,69.92
2023-04-09T04:09:02.943Z,69.59
2023-04-09T04:11:41.305Z,69.45
2023-04-09T04:14:09.290Z,69.27
2023-04-09T04:16:41.066Z,68.98
2023-04-09T04:19:09.841Z,68.90
2023-04-09T04:21:42.260Z,68.84
2023-04-09T04:24:10.653Z,68.54
2023-04-09T04:26:42.879Z,68.63
2023-04-09T04:29:11.516Z,68.81
2023-04-09T04:31:53.929Z,68.78
2023-04-09T04:34:24.570Z,68.78
2023-04-09T04:36:59.583Z,68.75
2023-04-09T04:39:32.088Z,68.50
2023-04-09T04:42:06.083Z,68.25
2023-04-09T04:44:36.546Z,68.11
2023-04-09T04:47:15.954Z,68.29
2023-04-09T04:49:46.285Z,68.32
2023-04-09T04:52:20.164Z,68.16
2023-04-09T04:54:50.385Z,68.08
2023-04-09T04:57:21.709Z,68.01
2023-04-09T04:59:50.742Z,67.68
2023-04-09T05:02:19.269Z,67.56
2023-04-09T05:05:14.134Z,67.57
2023-04-09T05:07:51.922Z,67.21
2023-04-09T05:10:20.188Z,66.59
2023-04-09T05:12:48.677Z,66.59
2023-04-09T05:15:24.509Z,67.00
2023-04-09T05:17:52.964Z,66.79
2023-04-09T05:20:21.372Z,65.53
2023-04-09T05:23:01.356Z,62.96
2023-04-09T05:25:36.484Z,59.98
2023-04-09T05:28:05.640Z,57.69
2023-04-09T05:30:34.178Z,55.13
2023-04-09T05:33:04.379Z,53.56
2023-04-09T05:35:35.150Z,52.00
2023-04-09T05:38:05.361Z,51.08
2023-04-09T05:40:35.497Z,50.47
2023-04-09T05:43:06.157Z,49.51
2023-04-09T05:45:42.759Z,48.47
2023-04-09T05:48:13.018Z,48.45
2023-04-09T05:50:53.866Z,48.71
2023-04-09T05:53:24.678Z,48.90
2023-04-09T05:55:55.893Z,49.49
2023-04-09T05:58:25.994Z,49.75
2023-04-09T06:00:57.915Z,50.06
2023-04-09T06:03:26.294Z,50.58
2023-04-09T06:05:55.097Z,50.66
2023-04-09T06:08:24.342Z,50.64
2023-04-09T06:10:52.477Z,51.04
2023-04-09T06:13:21.371Z,50.68
2023-04-09T06:15:52.490Z,50.80
2023-04-09T06:18:20.896Z,50.25
2023-04-09T06:20:49.658Z,50.49
2023-04-09T06:23:29.017Z,50.64
2023-04-09T06:25:57.507Z,50.69
2023-04-09T06:28:25.680Z,51.16
2023-04-09T06:30:55.650Z,51.13
2023-04-09T06:33:24.323Z,51.47
2023-04-09T06:35:52.342Z,51.40
2023-04-09T06:38:21.141Z,51.59
2023-04-09T06:40:49.515Z,51.90
2023-04-09T06:43:20.094Z,51.10
2023-04-09T06:45:52.156Z,51.28
2023-04-09T06:48:20.201Z,51.17
2023-04-09T06:50:48.593Z,51.08
2023-04-09T06:53:17.815Z,50.92
2023-04-09T06:55:46.000Z,51.40
2023-04-09T06:58:16.996Z,51.36
2023-04-09T07:00:47.900Z,50.61
2023-04-09T07:03:17.378Z,49.92
2023-04-09T07:05:46.623Z,49.51
2023-04-09T07:08:15.098Z,48.35
2023-04-09T07:10:52.956Z,47.15
2023-04-09T07:13:24.958Z,45.05
2023-04-09T07:15:53.061Z,42.87
2023-04-09T07:18:21.781Z,41.08
2023-04-09T07:20:52.374Z,39.07
2023-04-09T07:23:20.743Z,36.17
2023-04-09T07:25:50.607Z,35.12
2023-04-09T07:28:19.454Z,35.70
2023-04-09T07:30:50.631Z,35.45
2023-04-09T07:33:38.633Z,34.47
2023-04-09T07:36:09.678Z,34.24
2023-04-09T07:38:37.750Z,33.24
2023-04-09T07:41:11.453Z,32.54
2023-04-09T07:43:43.592Z,31.84
2023-04-09T07:46:11.958Z,31.24
2023-04-09T07:48:42.756Z,31.83
2023-04-09T07:51:11.732Z,31.29
2023-04-09T07:53:44.120Z,31.83
2023-04-09T07:56:14.044Z,31.87
2023-04-09T07:58:42.781Z,31.76
2023-04-09T08:01:11.112Z,31.92
2023-04-09T08:03:40.280Z,31.59
2023-04-09T08:06:10.559Z,31.99
2023-04-09T08:08:44.529Z,32.15
2023-04-09T08:11:12.481Z,32.28
2023-04-09T08:13:41.085Z,32.20
2023-04-09T08:16:09.738Z,31.89
2023-04-09T08:18:42.495Z,32.14
2023-04-09T08:21:10.652Z,32.06
2023-04-09T08:23:38.762Z,31.96
2023-04-09T08:26:09.295Z,32.36
2023-04-09T08:28:37.498Z,32.36
2023-04-09T08:31:09.670Z,32.34
2023-04-09T08:33:37.882Z,31.10
2023-04-09T08:36:09.510Z,30.59
2023-04-09T08:38:37.928Z,30.05
2023-04-09T08:41:06.578Z,30.14
2023-04-09T08:43:47.221Z,29.87
2023-04-09T08:46:23.020Z,29.78
2023-04-09T08:48:51.492Z,29.63
2023-04-09T08:51:21.490Z,29.64
2023-04-09T08:53:56.588Z,29.30
2023-04-09T08:56:25.074Z,28.95
2023-04-09T08:58:53.504Z,28.83
2023-04-09T09:01:26.012Z,28.83
2023-04-09T09:03:56.465Z,28.45
2023-04-09T09:06:26.222Z,28.39
2023-04-09T09:09:24.967Z,28.50
2023-04-09T09:11:53.841Z,28.21
2023-04-09T09:14:26.175Z,28.82
2023-04-09T09:17:03.900Z,29.06
2023-04-09T09:19:36.610Z,29.12
2023-04-09T09:22:11.175Z,28.61
2023-04-09T09:24:50.290Z,28.72
2023-04-09T09:27:37.046Z,29.05
2023-04-09T09:30:07.242Z,29.10
2023-04-09T09:32:37.351Z,28.65
2023-04-09T09:35:06.996Z,28.03
2023-04-09T09:37:35.146Z,28.10
2023-04-09T09:40:07.119Z,27.82
2023-04-09T09:42:37.356Z,27.87
2023-04-09T09:45:17.732Z,28.12
2023-04-09T09:47:48.752Z,28.08
2023-04-09T09:50:17.552Z,27.92
2023-04-09T09:52:45.938Z,27.77
2023-04-09T09:55:15.412Z,27.58
2023-04-09T09:57:44.757Z,27.78
2023-04-09T10:00:17.728Z,27.96
2023-04-09T10:02:57.381Z,28.06
2023-04-09T10:05:27.881Z,28.38
2023-04-09T10:07:58.337Z,28.81
2023-04-09T10:10:26.478Z,29.26
2023-04-09T10:12:54.836Z,29.90
2023-04-09T10:15:24.167Z,30.72
2023-04-09T10:17:54.600Z,31.67
2023-04-09T10:20:29.179Z,32.49
2023-04-09T10:22:57.352Z,32.90
2023-04-09T10:25:26.527Z,33.26
2023-04-09T10:28:02.264Z,33.28
2023-04-09T10:30:34.361Z,33.71
2023-04-09T10:33:26.522Z,34.15
2023-04-09T10:36:05.765Z,34.23
2023-04-09T10:38:45.315Z,34.20
2023-04-09T10:41:22.482Z,33.52
2023-04-09T10:43:51.078Z,33.42
2023-04-09T10:46:31.813Z,32.74
2023-04-09T10:49:16.941Z,32.39
2023-04-09T10:52:01.915Z,32.07
2023-04-09T10:54:34.365Z,31.55
2023-04-09T10:57:11.609Z,31.99
2023-04-09T10:59:49.163Z,32.28
2023-04-09T11:02:43.327Z,32.49
2023-04-09T11:05:18.056Z,32.53
2023-04-09T11:07:58.716Z,32.44
2023-04-09T11:10:27.266Z,32.72
2023-04-09T11:12:57.283Z,32.51
2023-04-09T11:15:28.662Z,32.19
2023-04-09T11:17:57.882Z,32.38
2023-04-09T11:20:43.647Z,32.30
2023-04-09T11:23:13.394Z,32.09
2023-04-09T11:25:43.286Z,31.83
2023-04-09T11:28:29.945Z,31.18
2023-04-09T11:31:11.798Z,30.33
2023-04-09T11:33:47.121Z,29.47
2023-04-09T11:36:15.297Z,29.74
2023-04-09T11:38:44.928Z,29.61
2023-04-09T11:41:13.707Z,30.06
2023-04-09T11:43:42.544Z,30.34
2023-04-09T11:46:14.687Z,30.97
2023-04-09T11:48:44.091Z,31.23
2023-04-09T11:51:21.020Z,31.41
2023-04-09T11:53:54.814Z,31.51
2023-04-09T11:56:22.928Z,31.88
2023-04-09T11:58:58.784Z,32.29
2023-04-09T12:01:32.546Z,32.66
2023-04-09T12:04:01.690Z,33.26
2023-04-09T12:06:40.516Z,33.08
2023-04-09T12:09:08.713Z,32.99
2023-04-09T12:11:47.813Z,32.27
2023-04-09T12:14:34.971Z,31.71
2023-04-09T12:17:05.260Z,32.21
2023-04-09T12:19:54.137Z,32.23
2023-04-09T12:22:41.945Z,32.10
2023-04-09T12:25:13.993Z,31.86
2023-04-09T12:27:47.031Z,30.88
2023-04-09T12:30:16.931Z,30.74
2023-04-09T12:32:52.669Z,30.69
2023-04-09T12:35:22.910Z,31.08
2023-04-09T12:37:53.750Z,31.35
2023-04-09T12:40:24.758Z,31.18
2023-04-09T12:42:59.274Z,31.30
2023-04-09T12:45:28.306Z,30.62
2023-04-09T12:47:59.534Z,30.61
2023-04-09T12:50:28.604Z,30.49
2023-04-09T12:52:56.700Z,30.49
2023-04-09T12:55:26.774Z,30.55
2023-04-09T12:57:57.074Z,30.68
2023-04-09T13:00:25.239Z,30.69
2023-04-09T13:02:57.923Z,30.98
2023-04-09T13:05:26.089Z,30.94
2023-04-09T13:07:54.801Z,31.30
2023-04-09T13:10:23.627Z,32.53
2023-04-09T13:12:52.578Z,33.36
2023-04-09T13:15:23.060Z,33.82
2023-04-09T13:17:56.399Z,34.24
2023-04-09T13:20:27.731Z,35.28
2023-04-09T13:22:56.528Z,36.42
2023-04-09T13:25:24.990Z,37.39
2023-04-09T13:27:58.003Z,37.54
2023-04-09T13:30:26.553Z,39.14
2023-04-09T13:33:01.634Z,39.27
2023-04-09T13:35:41.235Z,38.64
2023-04-09T13:38:16.287Z,39.61
2023-04-09T13:40:50.063Z,38.40
2023-04-09T13:43:21.293Z,38.38
2023-04-09T13:45:50.191Z,38.29
2023-04-09T13:48:19.041Z,39.55
2023-04-09T13:50:50.287Z,39.71
2023-04-09T13:53:19.603Z,42.20
2023-04-09T13:55:49.074Z,44.31
2023-04-09T13:58:17.073Z,45.51
2023-04-09T14:00:48.294Z,46.27
2023-04-09T14:03:16.802Z,47.26
2023-04-09T14:05:45.388Z,48.28
2023-04-09T14:08:19.197Z,49.43
2023-04-09T14:10:48.636Z,50.03
2023-04-09T14:13:17.246Z,50.82
2023-04-09T14:15:46.405Z,52.36
2023-04-09T14:18:15.559Z,53.84
2023-04-09T14:20:44.756Z,55.72
2023-04-09T14:23:13.235Z,57.08
2023-04-09T14:25:43.535Z,58.74
2023-04-09T14:28:11.837Z,60.60
2023-04-09T14:30:42.389Z,62.47
2023-04-09T14:33:33.154Z,64.25
2023-04-09T14:36:04.838Z,65.28
2023-04-09T14:38:37.759Z,66.16
2023-04-09T14:41:06.919Z,66.75
2023-04-09T14:43:35.613Z,67.77
2023-04-09T14:46:13.553Z,68.43
2023-04-09T14:48:46.863Z,68.95
2023-04-09T14:51:16.749Z,69.36
2023-04-09T14:53:52.971Z,69.19
2023-04-09T14:56:21.580Z,69.31
2023-04-09T14:58:49.935Z,69.44
2023-04-09T15:01:21.532Z,69.60
2023-04-09T15:04:11.414Z,69.62
2023-04-09T15:06:42.528Z,69.55
2023-04-09T15:09:15.025Z,69.40
2023-04-09T15:11:45.698Z,69.31
2023-04-09T15:14:17.883Z,69.23
2023-04-09T15:16:48.659Z,69.31
2023-04-09T15:19:18.182Z,69.01
2023-04-09T15:21:46.380Z,68.68
2023-04-09T15:24:19.633Z,67.27
2023-04-09T15:26:47.811Z,66.51
2023-04-09T15:29:22.500Z,66.08
2023-04-09T15:31:56.320Z,66.40
2023-04-09T15:34:32.727Z,66.72
2023-04-09T15:37:04.442Z,66.87
2023-04-09T15:39:32.829Z,67.00
2023-04-09T15:42:02.275Z,66.97
2023-04-09T15:44:31.646Z,67.06
2023-04-09T15:47:11.305Z,67.33
2023-04-09T15:49:43.092Z,67.60
2023-04-09T15:52:16.166Z,67.68
2023-04-09T15:54:46.710Z,67.67
2023-04-09T15:57:22.505Z,67.76
2023-04-09T15:59:50.825Z,67.73
2023-04-09T16:02:25.924Z,67.80
2023-04-09T16:04:56.448Z,67.84
2023-04-09T16:07:25.840Z,67.85
2023-04-09T16:09:54.537Z,67.90
2023-04-09T16:12:26.419Z,68.28
2023-04-09T16:15:08.114Z,68.24
2023-04-09T16:17:40.845Z,68.11
2023-04-09T16:20:11.591Z,67.81
2023-04-09T16:22:45.958Z,67.68
2023-04-09T16:25:14.506Z,67.79
2023-04-09T16:27:48.570Z,67.89
2023-04-09T16:30:23.815Z,68.08
2023-04-09T16:32:56.323Z,68.23
2023-04-09T16:35:26.123Z,68.19
2023-04-09T16:38:09.402Z,67.89
2023-04-09T16:40:46.434Z,67.77
2023-04-09T16:43:18.862Z,67.75
2023-04-09T16:45:48.079Z,67.52
2023-04-09T16:48:37.241Z,67.45
2023-04-09T16:51:12.572Z,67.38
2023-04-09T16:53:44.860Z,67.37
2023-04-09T16:56:19.508Z,67.25
2023-04-09T16:58:48.501Z,67.22
2023-04-09T17:01:21.239Z,67.22
2023-04-09T17:03:49.783Z,67.37
2023-04-09T17:06:18.816Z,67.20
2023-04-09T17:08:48.122Z,67.42
2023-04-09T17:11:17.132Z,67.22
2023-04-09T17:13:51.947Z,67.33
2023-04-09T17:16:24.939Z,67.34
2023-04-09T17:18:53.523Z,67.34
2023-04-09T17:21:27.454Z,67.49
2023-04-09T17:24:04.213Z,67.58
2023-04-09T17:26:34.797Z,67.60
2023-04-09T17:29:03.561Z,67.65
2023-04-09T17:31:32.104Z,67.77
2023-04-09T17:34:19.478Z,68.06
2023-04-09T17:36:56.516Z,68.31
2023-04-09T17:39:32.963Z,68.44
2023-04-09T17:42:03.547Z,68.65
2023-04-09T17:44:39.381Z,68.65
2023-04-09T17:47:12.370Z,68.78
2023-04-09T17:49:43.780Z,68.97
2023-04-09T17:52:14.885Z,68.96
2023-04-09T17:54:46.830Z,69.01
2023-04-09T17:57:15.686Z,68.96
2023-04-09T17:59:49.121Z,69.06
2023-04-09T18:02:19.967Z,69.19
2023-04-09T18:04:55.512Z,69.23
2023-04-09T18:07:24.540Z,69.28
2023-04-09T18:09:53.016Z,68.95
2023-04-09T18:12:21.679Z,68.93
2023-04-09T18:15:04.457Z,68.79
2023-04-09T18:17:41.452Z,68.53
2023-04-09T18:20:15.690Z,68.62
2023-04-09T18:22:44.354Z,68.57
2023-04-09T18:25:21.658Z,68.42
2023-04-09T18:27:50.639Z,68.20
2023-04-09T18:30:26.387Z,68.39
2023-04-09T18:32:59.854Z,68.39
2023-04-09T18:35:32.105Z,68.43
2023-04-09T18:38:08.465Z,68.50
2023-04-09T18:40:42.457Z,68.56
2023-04-09T18:43:15.278Z,68.44
2023-04-09T18:45:43.913Z,68.34
2023-04-09T18:48:13.360Z,68.34
2023-04-09T18:50:41.680Z,68.46
2023-04-09T18:53:09.844Z,68.58
2023-04-09T18:55:38.584Z,68.64
2023-04-09T18:58:15.844Z,68.61
2023-04-09T19:00:47.309Z,68.59
2023-04-09T19:03:17.143Z,68.67
2023-04-09T19:05:45.593Z,68.64
2023-04-09T19:08:13.945Z,68.78
2023-04-09T19:10:42.455Z,68.71
2023-04-09T19:13:11.015Z,68.70
2023-04-09T19:15:39.678Z,68.46
2023-04-09T19:18:07.882Z,68.51
2023-04-09T19:20:37.882Z,68.60
2023-04-09T19:23:06.923Z,68.66
2023-04-09T19:25:37.011Z,68.74
2023-04-09T19:28:07.337Z,68.82
2023-04-09T19:30:35.753Z,68.89
2023-04-09T19:33:10.418Z,69.05
2023-04-09T19:35:41.362Z,69.16
2023-04-09T19:38:09.846Z,69.26
2023-04-09T19:40:38.947Z,69.50
2023-04-09T19:43:10.377Z,69.56
2023-04-09T19:45:38.637Z,69.69
2023-04-09T19:48:07.412Z,69.95
2023-04-09T19:50:38.768Z,70.14
2023-04-09T19:53:07.037Z,70.20
2023-04-09T19:55:35.343Z,70.28
2023-04-09T19:58:03.796Z,70.41
2023-04-09T20:00:32.900Z,70.36
2023-04-09T20:03:03.075Z,70.41
2023-04-09T20:05:31.794Z,70.38
2023-04-09T20:08:02.589Z,70.38
2023-04-09T20:10:39.835Z,70.17
2023-04-09T20:13:08.951Z,70.10
2023-04-09T20:15:37.042Z,70.17
2023-04-09T20:18:10.300Z,70.26
2023-04-09T20:20:40.811Z,70.33
2023-04-09T20:23:08.759Z,70.54
2023-04-09T20:25:38.749Z,70.74
2023-04-09T20:28:09.938Z,70.73
2023-04-09T20:30:38.071Z,70.70
2023-04-09T20:33:06.702Z,70.68
2023-04-09T20:35:36.356Z,70.66
2023-04-09T20:38:04.635Z,70.64
2023-04-09T20:40:32.665Z,70.55
2023-04-09T20:43:04.131Z,70.59
2023-04-09T20:45:37.810Z,70.63
2023-04-09T20:48:06.819Z,70.69
2023-04-09T20:50:35.500Z,70.87
2023-04-09T20:53:05.911Z,71.03
2023-04-09T20:55:34.085Z,70.91
2023-04-09T20:58:06.357Z,71.01
2023-04-09T21:00:36.001Z,71.22
2023-04-09T21:03:04.170Z,71.41
2023-04-09T21:05:38.998Z,71.65
2023-04-09T21:08:09.659Z,71.67
2023-04-09T21:10:38.099Z,71.74
2023-04-09T21:13:06.378Z,71.82
2023-04-09T21:15:35.887Z,71.84
2023-04-09T21:18:04.208Z,72.25
2023-04-09T21:20:43.600Z,72.27
2023-04-09T21:23:13.649Z,72.27
2023-04-09T21:25:42.516Z,72.39
2023-04-09T21:28:12.227Z,72.37
2023-04-09T21:30:40.495Z,72.29
2023-04-09T21:33:09.108Z,72.21
2023-04-09T21:35:41.452Z,72.25
2023-04-09T21:38:09.984Z,71.97
2023-04-09T21:40:38.079Z,71.64
2023-04-09T21:43:06.845Z,71.38
2023-04-09T21:45:34.890Z,71.35
2023-04-09T21:48:04.261Z,70.99
2023-04-09T21:50:32.964Z,70.99
2023-04-09T21:53:01.123Z,70.88
2023-04-09T21:55:31.739Z,70.78
2023-04-09T21:57:59.946Z,70.69
2023-04-09T22:00:29.442Z,70.67
2023-04-09T22:03:03.989Z,70.31
2023-04-09T22:05:34.447Z,70.28
2023-04-09T22:08:05.642Z,70.35
2023-04-09T22:10:34.132Z,70.39
2023-04-09T22:13:10.923Z,70.31
2023-04-09T22:15:41.993Z,70.39
2023-04-09T22:18:10.112Z,70.44
2023-04-09T22:20:45.284Z,70.71
2023-04-09T22:23:15.851Z,70.76
2023-04-09T22:25:44.156Z,70.70
2023-04-09T22:28:19.901Z,70.84
2023-04-09T22:30:48.657Z,70.76
2023-04-09T22:33:17.156Z,70.53
2023-04-09T22:35:45.957Z,70.56
2023-04-09T22:38:16.524Z,70.64
2023-04-09T22:40:46.521Z,70.69
2023-04-09T22:43:14.922Z,70.88
2023-04-09T22:45:51.354Z,70.72
2023-04-09T22:48:23.269Z,70.44
2023-04-09T22:50:51.396Z,70.24
2023-04-09T22:53:20.851Z,70.02
2023-04-09T22:55:53.647Z,69.84
2023-04-09T22:58:21.607Z,69.57
2023-04-09T23:00:50.577Z,69.65
2023-04-09T23:03:18.867Z,69.41
2023-04-09T23:05:47.035Z,69.59
2023-04-09T23:08:17.775Z,69.66
2023-04-09T23:10:51.814Z,69.79
2023-04-09T23:13:19.834Z,69.58
2023-04-09T23:15:50.994Z,69.67
2023-04-09T23:18:19.206Z,69.67
2023-04-09T23:20:47.532Z,69.72
2023-04-09T23:23:17.533Z,69.65
2023-04-09T23:25:45.738Z,69.62
2023-04-09T23:28:14.598Z,69.74
2023-04-09T23:30:42.723Z,69.87
2023-04-09T23:33:13.304Z,69.64
2023-04-09T23:35:41.688Z,69.55
2023-04-09T23:38:11.032Z,69.59
2023-04-09T23:40:40.219Z,69.52
2023-04-09T23:43:08.377Z,69.22
2023-04-09T23:45:37.706Z,69.28
2023-04-09T23:48:07.608Z,69.22
2023-04-09T23:50:39.796Z,69.43
2023-04-09T23:53:07.976Z,69.45
2023-04-09T23:55:41.249Z,69.49
2023-04-09T23:58:10.989Z,69.63
